createdAt,value
2023-02-03T00:00:53.562Z,84.64
2023-02-03T00:03:20.140Z,84.05
2023-02-03T00:05:47.185Z,84.67
2023-02-03T00:08:17.961Z,84.39
2023-02-03T00:10:45.104Z,83.70
2023-02-03T00:13:11.869Z,84.03
2023-02-03T00:15:38.498Z,84.39
2023-02-03T00:18:05.123Z,83.54
2023-02-03T00:20:31.749Z,83.22
2023-02-03T00:23:09.383Z,83.64
2023-02-03T00:25:36.980Z,83.86
2023-02-03T00:28:04.307Z,84.11
2023-02-03T00:30:31.133Z,83.66
2023-02-03T00:32:57.688Z,84.26
2023-02-03T00:35:24.201Z,84.16
2023-02-03T00:37:53.321Z,84.43
2023-02-03T00:40:21.748Z,84.98
2023-02-03T00:42:48.363Z,84.75
2023-02-03T00:45:15.140Z,85.01
2023-02-03T00:47:41.765Z,85.97
2023-02-03T00:50:10.154Z,85.64
2023-02-03T00:52:37.029Z,86.57
2023-02-03T00:55:04.880Z,86.62
2023-02-03T00:57:31.646Z,86.41
2023-02-03T00:59:58.146Z,85.96
2023-02-03T01:02:25.003Z,85.92
2023-02-03T01:04:51.696Z,86.30
2023-02-03T01:07:18.739Z,86.16
2023-02-03T01:09:45.353Z,86.48
2023-02-03T01:12:11.949Z,86.48
2023-02-03T01:14:38.563Z,87.11
2023-02-03T01:17:05.265Z,86.80
2023-02-03T01:19:31.950Z,87.33
2023-02-03T01:21:58.622Z,87.68
2023-02-03T01:24:25.193Z,87.52
2023-02-03T01:26:51.731Z,87.93
2023-02-03T01:29:18.296Z,88.22
2023-02-03T01:31:45.022Z,86.97
2023-02-03T01:34:14.231Z,87.83
2023-02-03T01:36:40.873Z,88.02
2023-02-03T01:39:08.410Z,87.86
2023-02-03T01:41:37.961Z,87.92
2023-02-03T01:44:35.443Z,88.41
2023-02-03T01:47:03.037Z,88.56
2023-02-03T01:49:36.650Z,89.04
2023-02-03T01:52:04.012Z,88.69
2023-02-03T01:54:37.596Z,88.32
2023-02-03T01:57:14.501Z,88.72
2023-02-03T01:59:42.406Z,89.67
2023-02-03T02:02:10.237Z,88.63
2023-02-03T02:05:16.101Z,88.97
2023-02-03T02:07:43.730Z,89.45
2023-02-03T02:10:11.254Z,89.57
2023-02-03T02:12:38.147Z,89.41
2023-02-03T02:15:05.507Z,89.15
2023-02-03T02:17:44.709Z,89.15
2023-02-03T02:20:37.570Z,89.50
2023-02-03T02:23:47.132Z,90.30
2023-02-03T02:26:34.786Z,90.48
2023-02-03T02:29:01.288Z,91.28
2023-02-03T02:31:51.027Z,89.95
2023-02-03T02:34:42.589Z,89.51
2023-02-03T02:37:48.093Z,90.84
2023-02-03T02:40:29.449Z,90.35
2023-02-03T02:43:17.861Z,90.52
2023-02-03T02:45:56.265Z,90.25
2023-02-03T02:48:38.712Z,90.83
2023-02-03T02:51:07.923Z,91.11
2023-02-03T02:53:38.849Z,91.91
2023-02-03T02:56:09.764Z,91.42
2023-02-03T02:58:41.029Z,91.88
2023-02-03T03:01:09.958Z,92.62
2023-02-03T03:03:40.488Z,92.54
2023-02-03T03:06:11.154Z,92.41
2023-02-03T03:08:45.540Z,92.96
2023-02-03T03:11:12.818Z,92.11
2023-02-03T03:13:45.516Z,92.03
2023-02-03T03:16:15.184Z,91.45
2023-02-03T03:18:48.426Z,91.76
2023-02-03T03:21:22.246Z,91.68
2023-02-03T03:23:52.203Z,91.28
2023-02-03T03:26:35.749Z,90.82
2023-02-03T03:29:18.460Z,90.78
2023-02-03T03:31:46.533Z,91.01
2023-02-03T03:34:14.738Z,91.15
2023-02-03T03:36:44.646Z,90.48
2023-02-03T03:39:28.285Z,90.17
2023-02-03T03:42:01.314Z,90.14
2023-02-03T03:44:36.073Z,89.77
2023-02-03T03:47:27.738Z,89.88
2023-02-03T03:49:56.726Z,90.07
2023-02-03T03:52:29.002Z,89.45
2023-02-03T03:54:57.766Z,89.21
2023-02-03T03:57:34.682Z,89.06
2023-02-03T04:00:04.113Z,88.87
2023-02-03T04:02:34.025Z,88.88
2023-02-03T04:05:01.791Z,88.94
2023-02-03T04:07:39.433Z,88.64
2023-02-03T04:10:11.372Z,88.77
2023-02-03T04:12:37.936Z,88.74
2023-02-03T04:15:04.778Z,88.72
2023-02-03T04:17:34.060Z,88.40
2023-02-03T04:20:00.647Z,88.81
2023-02-03T04:22:27.196Z,87.95
2023-02-03T04:24:53.783Z,87.56
2023-02-03T04:27:20.529Z,87.33
2023-02-03T04:29:47.616Z,87.56
2023-02-03T04:32:14.133Z,86.93
2023-02-03T04:34:40.680Z,85.99
2023-02-03T04:37:07.363Z,86.03
2023-02-03T04:39:33.914Z,86.48
2023-02-03T04:42:00.476Z,86.06
2023-02-03T04:44:27.003Z,86.00
2023-02-03T04:46:53.568Z,86.25
2023-02-03T04:49:20.215Z,86.00
2023-02-03T04:51:49.613Z,86.58
2023-02-03T04:54:16.246Z,87.42
2023-02-03T04:56:42.963Z,87.16
2023-02-03T04:59:09.691Z,87.35
2023-02-03T05:01:36.283Z,87.39
2023-02-03T05:04:02.855Z,87.67
2023-02-03T05:06:30.412Z,87.80
2023-02-03T05:08:56.974Z,87.03
2023-02-03T05:11:23.537Z,87.66
2023-02-03T05:13:50.497Z,86.77
2023-02-03T05:16:17.441Z,86.58
2023-02-03T05:18:44.097Z,87.06
2023-02-03T05:21:10.672Z,87.12
2023-02-03T05:23:37.289Z,86.79
2023-02-03T05:26:04.470Z,86.09
2023-02-03T05:28:31.107Z,86.50
2023-02-03T05:31:01.824Z,86.14
2023-02-03T05:33:29.501Z,85.08
2023-02-03T05:35:56.591Z,85.07
2023-02-03T05:38:23.510Z,85.42
2023-02-03T05:41:09.981Z,84.44
2023-02-03T05:43:37.433Z,84.34
2023-02-03T05:46:06.243Z,84.39
2023-02-03T05:48:33.978Z,84.25
2023-02-03T05:51:00.637Z,84.39
2023-02-03T05:53:27.668Z,84.91
2023-02-03T05:55:54.284Z,83.60
2023-02-03T05:58:20.905Z,84.03
2023-02-03T06:00:47.493Z,83.75
2023-02-03T06:03:14.095Z,84.19
2023-02-03T06:05:41.461Z,83.89
2023-02-03T06:08:08.741Z,84.12
2023-02-03T06:10:35.451Z,84.11
2023-02-03T06:13:13.858Z,84.04
2023-02-03T06:15:40.751Z,83.98
2023-02-03T06:18:07.687Z,84.36
2023-02-03T06:20:34.742Z,84.51
2023-02-03T06:23:01.477Z,84.44
2023-02-03T06:25:29.036Z,83.84
2023-02-03T06:27:55.754Z,84.42
2023-02-03T06:30:23.824Z,84.18
2023-02-03T06:32:50.872Z,83.53
2023-02-03T06:35:18.179Z,83.55
2023-02-03T06:37:44.899Z,83.04
2023-02-03T06:40:12.704Z,83.46
2023-02-03T06:42:39.363Z,82.91
2023-02-03T06:45:06.497Z,83.87
2023-02-03T06:47:33.079Z,84.18
2023-02-03T06:49:59.691Z,84.68
2023-02-03T06:52:26.365Z,85.56
2023-02-03T06:54:52.918Z,85.08
2023-02-03T06:57:19.611Z,85.38
2023-02-03T06:59:46.336Z,84.83
2023-02-03T07:02:13.091Z,84.68
2023-02-03T07:04:39.877Z,84.73
2023-02-03T07:07:06.433Z,85.01
2023-02-03T07:09:33.068Z,85.34
2023-02-03T07:11:59.970Z,84.95
2023-02-03T07:14:26.586Z,85.23
2023-02-03T07:16:54.404Z,84.11
2023-02-03T07:19:21.046Z,83.37
2023-02-03T07:21:47.648Z,82.75
2023-02-03T07:24:14.941Z,82.78
2023-02-03T07:26:41.534Z,82.31
2023-02-03T07:29:08.419Z,81.46
2023-02-03T07:31:35.805Z,81.01
2023-02-03T07:34:02.895Z,79.74
2023-02-03T07:36:29.474Z,80.16
2023-02-03T07:38:56.665Z,79.85
2023-02-03T07:41:23.309Z,80.28
2023-02-03T07:43:50.080Z,79.36
2023-02-03T07:46:16.822Z,81.00
2023-02-03T07:48:43.465Z,80.55
2023-02-03T07:51:10.065Z,80.76
2023-02-03T07:53:36.776Z,82.87
2023-02-03T07:56:05.053Z,82.29
2023-02-03T07:58:32.692Z,83.06
2023-02-03T08:01:00.208Z,83.47
2023-02-03T08:03:26.880Z,84.06
2023-02-03T08:05:53.597Z,83.91
2023-02-03T08:08:20.207Z,84.65
2023-02-03T08:10:46.850Z,83.82
2023-02-03T08:13:13.759Z,84.10
2023-02-03T08:15:40.407Z,83.86
2023-02-03T08:18:08.843Z,82.99
2023-02-03T08:20:35.747Z,83.68
2023-02-03T08:23:02.272Z,83.42
2023-02-03T08:25:28.967Z,83.00
2023-02-03T08:27:55.664Z,83.71
2023-02-03T08:30:23.167Z,83.05
2023-02-03T08:32:50.004Z,83.06
2023-02-03T08:35:16.713Z,83.20
2023-02-03T08:37:43.361Z,84.17
2023-02-03T08:40:12.075Z,84.00
2023-02-03T08:42:38.856Z,84.16
2023-02-03T08:45:06.258Z,84.85
2023-02-03T08:47:32.884Z,84.94
2023-02-03T08:49:59.560Z,84.96
2023-02-03T08:52:26.161Z,85.27
2023-02-03T08:54:52.789Z,85.34
2023-02-03T08:57:20.678Z,84.86
2023-02-03T08:59:47.462Z,85.66
2023-02-03T09:02:16.994Z,85.51
2023-02-03T09:04:43.959Z,84.69
2023-02-03T09:07:11.190Z,84.61
2023-02-03T09:09:38.332Z,84.48
2023-02-03T09:12:06.944Z,84.75
2023-02-03T09:14:34.249Z,85.13
2023-02-03T09:17:03.500Z,85.25
2023-02-03T09:19:30.827Z,85.10
2023-02-03T09:21:57.890Z,86.01
2023-02-03T09:24:25.200Z,86.03
2023-02-03T09:26:51.851Z,85.30
2023-02-03T09:29:19.247Z,85.43
2023-02-03T09:31:49.212Z,85.22
2023-02-03T09:34:15.963Z,85.56
2023-02-03T09:36:43.192Z,86.08
2023-02-03T09:39:09.895Z,85.29
2023-02-03T09:41:45.464Z,85.51
2023-02-03T09:44:24.120Z,85.50
2023-02-03T09:46:59.084Z,86.61
2023-02-03T09:49:38.697Z,86.69
2023-02-03T09:52:19.718Z,86.84
2023-02-03T09:55:01.420Z,87.00
2023-02-03T09:57:31.342Z,86.93
2023-02-03T10:00:02.646Z,86.75
2023-02-03T10:02:48.829Z,86.70
2023-02-03T10:05:28.668Z,85.66
2023-02-03T10:08:13.458Z,85.92
2023-02-03T10:10:49.135Z,85.00
2023-02-03T10:13:45.484Z,84.93
2023-02-03T10:16:33.487Z,85.62
2023-02-03T10:19:07.324Z,85.89
2023-02-03T10:21:38.481Z,86.15
2023-02-03T10:24:20.250Z,86.00
2023-02-03T10:26:47.151Z,86.12
2023-02-03T10:29:42.649Z,85.78
2023-02-03T10:32:11.440Z,86.63
2023-02-03T10:34:39.232Z,85.79
2023-02-03T10:37:29.126Z,87.25
2023-02-03T10:39:59.208Z,86.69
2023-02-03T10:42:46.124Z,85.48
2023-02-03T10:45:15.582Z,84.71
2023-02-03T10:47:47.504Z,85.39
2023-02-03T10:50:24.107Z,85.21
2023-02-03T10:52:50.828Z,86.22
2023-02-03T10:55:26.610Z,85.79
2023-02-03T10:57:56.419Z,85.35
2023-02-03T11:00:33.029Z,84.42
2023-02-03T11:03:21.278Z,83.85
2023-02-03T11:05:47.868Z,83.91
2023-02-03T11:08:16.103Z,83.21
2023-02-03T11:10:43.918Z,82.89
2023-02-03T11:13:19.604Z,83.54
2023-02-03T11:15:53.379Z,82.08
2023-02-03T11:18:38.141Z,82.40
2023-02-03T11:21:18.114Z,82.13
2023-02-03T11:23:46.634Z,82.48
2023-02-03T11:26:17.944Z,84.23
2023-02-03T11:28:47.784Z,84.42
2023-02-03T11:31:26.835Z,85.24
2023-02-03T11:34:23.999Z,86.20
2023-02-03T11:36:51.715Z,86.84
2023-02-03T11:39:27.676Z,87.47
2023-02-03T11:41:55.230Z,88.29
2023-02-03T11:44:31.437Z,88.11
2023-02-03T11:47:04.001Z,88.55
2023-02-03T11:49:39.656Z,87.71
2023-02-03T11:52:29.735Z,87.80
2023-02-03T11:55:05.258Z,88.23
2023-02-03T11:57:38.066Z,87.46
2023-02-03T12:00:31.019Z,87.54
2023-02-03T12:03:15.801Z,87.13
2023-02-03T12:05:51.422Z,86.32
2023-02-03T12:08:44.084Z,86.58
2023-02-03T12:11:51.153Z,86.48
2023-02-03T12:14:35.580Z,87.14
2023-02-03T12:17:17.933Z,87.37
2023-02-03T12:19:56.707Z,86.59
2023-02-03T12:22:37.774Z,85.51
2023-02-03T12:25:41.440Z,85.12
2023-02-03T12:28:33.599Z,85.16
2023-02-03T12:31:09.505Z,85.29
2023-02-03T12:33:44.342Z,84.38
2023-02-03T12:36:16.444Z,84.12
2023-02-03T12:38:56.262Z,83.62
2023-02-03T12:41:31.897Z,84.00
2023-02-03T12:44:05.087Z,83.49
2023-02-03T12:46:46.817Z,82.08
2023-02-03T12:49:18.788Z,81.77
2023-02-03T12:52:00.918Z,81.48
2023-02-03T12:55:01.241Z,82.59
2023-02-03T12:57:39.842Z,81.53
2023-02-03T13:00:34.818Z,83.30
2023-02-03T13:03:10.224Z,83.97
2023-02-03T13:06:02.358Z,84.72
2023-02-03T13:09:14.696Z,84.84
2023-02-03T13:12:03.187Z,86.15
2023-02-03T13:14:36.345Z,87.03
2023-02-03T13:17:13.448Z,89.08
2023-02-03T13:19:51.480Z,88.78
2023-02-03T13:22:19.386Z,90.32
2023-02-03T13:24:53.627Z,84.26
2023-02-03T13:27:29.211Z,85.00
2023-02-03T13:30:14.590Z,84.66
2023-02-03T13:33:08.807Z,84.95
2023-02-03T13:35:48.819Z,84.28
2023-02-03T13:38:37.076Z,82.71
2023-02-03T13:41:19.151Z,80.98
2023-02-03T13:43:50.082Z,80.39
2023-02-03T13:46:27.510Z,79.51
2023-02-03T13:48:56.989Z,77.18
2023-02-03T13:51:46.005Z,75.87
2023-02-03T13:54:28.583Z,77.49
2023-02-03T13:57:04.547Z,75.03
2023-02-03T13:59:37.071Z,75.41
2023-02-03T14:02:32.083Z,75.26
2023-02-03T14:05:00.047Z,75.09
2023-02-03T14:07:29.338Z,74.89
2023-02-03T14:10:24.111Z,75.04
2023-02-03T14:12:50.621Z,73.69
2023-02-03T14:15:26.754Z,74.69
2023-02-03T14:17:54.709Z,74.98
2023-02-03T14:20:29.320Z,75.67
2023-02-03T14:23:04.742Z,74.26
2023-02-03T14:25:33.863Z,73.06
2023-02-03T14:28:06.793Z,74.81
2023-02-03T14:31:13.841Z,71.38
2023-02-03T14:34:05.952Z,72.58
2023-02-03T14:36:33.639Z,70.59
2023-02-03T14:39:03.339Z,71.76
2023-02-03T14:41:51.228Z,71.88
2023-02-03T14:44:39.209Z,72.63
2023-02-03T14:47:14.390Z,72.55
2023-02-03T14:50:15.331Z,74.82
2023-02-03T14:52:47.900Z,75.08
2023-02-03T14:55:36.344Z,74.02
2023-02-03T14:58:14.006Z,72.65
2023-02-03T15:00:40.543Z,75.19
2023-02-03T15:03:09.937Z,75.19
2023-02-03T15:05:41.416Z,74.34
2023-02-03T15:08:30.687Z,75.12
2023-02-03T15:10:57.410Z,75.46
2023-02-03T15:13:26.261Z,74.37
2023-02-03T15:15:57.965Z,73.22
2023-02-03T15:18:36.222Z,74.32
2023-02-03T15:21:03.790Z,73.37
2023-02-03T15:23:38.893Z,74.14
2023-02-03T15:26:14.624Z,74.52
2023-02-03T15:28:41.324Z,72.81
2023-02-03T15:31:08.003Z,73.77
2023-02-03T15:33:37.068Z,72.67
2023-02-03T15:36:12.726Z,71.30
2023-02-03T15:38:44.395Z,70.86
2023-02-03T15:41:25.751Z,71.38
2023-02-03T15:44:08.718Z,71.76
2023-02-03T15:46:38.943Z,71.97
2023-02-03T15:49:17.965Z,73.46
2023-02-03T15:51:51.875Z,71.54
2023-02-03T15:54:24.813Z,71.47
2023-02-03T15:56:58.565Z,71.44
2023-02-03T15:59:29.358Z,71.64
2023-02-03T16:01:56.726Z,72.03
2023-02-03T16:04:25.413Z,73.96
2023-02-03T16:06:53.900Z,72.10
2023-02-03T16:09:26.252Z,70.83
2023-02-03T16:12:14.507Z,71.59
2023-02-03T16:14:42.148Z,71.51
2023-02-03T16:17:36.663Z,71.35
2023-02-03T16:20:12.158Z,72.03
2023-02-03T16:22:47.352Z,70.48
2023-02-03T16:25:19.878Z,70.67
2023-02-03T16:28:21.412Z,69.91
2023-02-03T16:31:19.932Z,71.54
2023-02-03T16:34:07.031Z,70.10
2023-02-03T16:36:52.903Z,69.43
2023-02-03T16:39:38.035Z,69.93
2023-02-03T16:42:32.579Z,69.29
2023-02-03T16:45:17.719Z,69.83
2023-02-03T16:48:04.423Z,70.63
2023-02-03T16:50:50.127Z,69.43
2023-02-03T16:53:23.401Z,70.07
2023-02-03T16:55:51.674Z,70.98
2023-02-03T16:58:18.834Z,69.70
2023-02-03T17:00:48.399Z,68.46
2023-02-03T17:03:16.716Z,69.18
2023-02-03T17:05:45.030Z,70.45
2023-02-03T17:08:12.662Z,70.18
2023-02-03T17:10:41.354Z,68.98
2023-02-03T17:13:08.376Z,69.40
2023-02-03T17:15:39.889Z,68.82
2023-02-03T17:18:06.426Z,69.55
2023-02-03T17:20:32.995Z,68.83
2023-02-03T17:22:59.578Z,70.19
2023-02-03T17:25:26.138Z,68.66
2023-02-03T17:27:52.721Z,68.44
2023-02-03T17:30:19.402Z,68.08
2023-02-03T17:32:45.984Z,70.38
2023-02-03T17:35:12.670Z,69.26
2023-02-03T17:37:39.285Z,68.71
2023-02-03T17:54:04.832Z,66.84
2023-02-03T17:56:32.787Z,66.10
2023-02-03T17:59:01.592Z,66.43
2023-02-03T18:01:28.660Z,66.49
2023-02-03T18:03:57.416Z,66.00
2023-02-03T18:06:25.367Z,66.22
2023-02-03T18:08:52.620Z,64.71
2023-02-03T18:11:20.795Z,64.37
2023-02-03T18:13:49.207Z,64.65
2023-02-03T18:16:22.845Z,63.41
2023-02-03T18:18:51.383Z,62.59
2023-02-03T18:21:18.072Z,62.09
2023-02-03T18:23:44.722Z,61.79
2023-02-03T18:26:12.834Z,64.27
2023-02-03T18:28:40.603Z,63.19
2023-02-03T18:31:10.626Z,63.30
2023-02-03T18:33:38.141Z,62.36
2023-02-03T18:36:05.791Z,63.67
2023-02-03T18:38:34.454Z,64.69
2023-02-03T18:41:06.184Z,64.56
2023-02-03T18:43:33.074Z,64.64
2023-02-03T18:46:00.329Z,64.38
2023-02-03T18:48:26.940Z,65.44
2023-02-03T18:50:53.441Z,64.81
2023-02-03T18:53:19.996Z,65.48
2023-02-03T18:55:46.579Z,65.67
2023-02-03T18:58:13.657Z,66.04
2023-02-03T19:00:40.981Z,65.13
2023-02-03T19:03:08.011Z,65.27
2023-02-03T19:05:34.607Z,67.42
2023-02-03T19:08:01.209Z,66.76
2023-02-03T19:10:28.163Z,67.12
2023-02-03T19:12:54.987Z,68.50
2023-02-03T19:15:21.666Z,67.29
2023-02-03T19:17:48.232Z,66.86
2023-02-03T19:20:14.874Z,65.96
2023-02-03T19:22:41.406Z,67.83
2023-02-03T19:25:08.229Z,65.89
2023-02-03T19:27:34.781Z,66.44
2023-02-03T19:30:01.364Z,67.12
2023-02-03T19:32:27.948Z,67.66
2023-02-03T19:34:54.532Z,66.11
2023-02-03T19:37:21.160Z,66.99
2023-02-03T19:39:50.335Z,65.68
2023-02-03T19:42:17.508Z,65.07
2023-02-03T19:44:44.128Z,65.84
2023-02-03T19:47:10.742Z,67.67
2023-02-03T19:49:37.357Z,67.32
2023-02-03T19:52:04.249Z,68.39
2023-02-03T19:54:30.997Z,67.55
2023-02-03T19:56:57.602Z,69.62
2023-02-03T19:59:24.228Z,71.55
2023-02-03T20:01:50.891Z,71.13
2023-02-03T20:04:17.472Z,73.73
2023-02-03T20:06:44.121Z,73.84
2023-02-03T20:09:11.100Z,73.01
2023-02-03T20:11:37.711Z,74.68
2023-02-03T20:14:04.401Z,75.65
2023-02-03T20:16:31.051Z,76.19
2023-02-03T20:18:58.141Z,75.22
2023-02-03T20:21:24.742Z,76.10
2023-02-03T20:23:51.322Z,74.99
2023-02-03T20:26:17.950Z,75.14
2023-02-03T20:28:45.935Z,75.98
2023-02-03T20:31:13.175Z,76.89
2023-02-03T20:33:39.796Z,77.80
2023-02-03T20:36:06.775Z,79.08
2023-02-03T20:38:33.279Z,80.55
2023-02-03T20:40:59.840Z,81.05
2023-02-03T20:43:27.799Z,82.51
2023-02-03T20:45:54.875Z,82.73
2023-02-03T20:48:23.861Z,84.18
2023-02-03T20:50:50.472Z,85.12
2023-02-03T20:53:19.393Z,84.08
2023-02-03T20:55:46.284Z,84.26
2023-02-03T20:58:18.968Z,83.50
2023-02-03T21:00:46.697Z,83.94
2023-02-03T21:03:33.307Z,83.93
2023-02-03T21:05:59.953Z,84.49
2023-02-03T21:08:27.618Z,84.49
2023-02-03T21:10:54.760Z,83.63
2023-02-03T21:13:24.274Z,82.87
2023-02-03T21:15:53.386Z,83.37
2023-02-03T21:18:33.549Z,83.38
2023-02-03T21:21:01.318Z,83.77
2023-02-03T21:23:40.080Z,84.65
2023-02-03T21:26:30.125Z,83.64
2023-02-03T21:28:59.173Z,82.72
2023-02-03T21:31:31.632Z,82.31
2023-02-03T21:34:00.509Z,82.74
2023-02-03T21:36:37.903Z,82.35
2023-02-03T21:39:26.137Z,81.86
2023-02-03T21:41:52.635Z,81.32
2023-02-03T21:44:28.242Z,81.80
2023-02-03T21:46:55.043Z,82.03
2023-02-03T21:49:22.238Z,81.37
2023-02-03T21:51:49.384Z,81.32
2023-02-03T21:54:33.526Z,80.46
2023-02-03T21:57:00.995Z,81.16
2023-02-03T21:59:36.855Z,81.44
2023-02-03T22:02:03.590Z,81.12
2023-02-03T22:04:31.633Z,80.86
2023-02-03T22:06:58.272Z,81.27
2023-02-03T22:09:26.334Z,80.96
2023-02-03T22:11:53.662Z,82.30
2023-02-03T22:14:23.747Z,82.01
2023-02-03T22:16:50.614Z,82.52
2023-02-03T22:19:17.613Z,82.48
2023-02-03T22:21:44.844Z,83.42
2023-02-03T22:24:11.502Z,82.63
2023-02-03T22:26:38.066Z,84.03
2023-02-03T22:29:05.628Z,83.52
2023-02-03T22:31:32.468Z,83.71
2023-02-03T22:33:59.102Z,83.76
2023-02-03T22:36:25.919Z,83.49
2023-02-03T22:38:52.969Z,84.61
2023-02-03T22:41:20.901Z,85.74
2023-02-03T22:43:47.570Z,85.48
2023-02-03T22:46:14.167Z,85.76
2023-02-03T22:48:40.765Z,85.45
2023-02-03T22:51:07.468Z,85.24
2023-02-03T22:53:34.894Z,85.23
2023-02-03T22:56:01.675Z,86.28
2023-02-03T22:58:28.287Z,86.89
2023-02-03T23:00:54.922Z,87.22
2023-02-03T23:03:21.615Z,87.67
2023-02-03T23:05:48.321Z,87.44
2023-02-03T23:08:16.053Z,87.38
2023-02-03T23:10:42.646Z,86.98
2023-02-03T23:13:09.349Z,87.34
2023-02-03T23:15:36.018Z,87.31
2023-02-03T23:18:02.739Z,88.17
2023-02-03T23:20:29.773Z,87.65
2023-02-03T23:22:56.707Z,87.45
2023-02-03T23:25:23.418Z,88.25
2023-02-03T23:27:50.177Z,87.69
2023-02-03T23:30:17.027Z,88.04
2023-02-03T23:32:43.693Z,87.62
2023-02-03T23:35:31.199Z,88.30
2023-02-03T23:37:57.825Z,88.06
2023-02-03T23:40:33.721Z,88.03
2023-02-03T23:43:00.438Z,88.09
2023-02-03T23:45:33.212Z,87.45
2023-02-03T23:47:59.937Z,87.71
2023-02-03T23:50:26.664Z,88.79
2023-02-03T23:52:53.280Z,89.20
2023-02-03T23:55:21.850Z,89.90
2023-02-03T23:57:48.519Z,90.13
